Doune, United Kingdom
Current Conditions -  °F | °C
As of 12:20 AM on Friday 28 Nov 2014 (Local Time) from EGPF Reporting Station
Light Fog Light Fog  
Wind Chill: 40°   Ceiling: 1800
Heat Index: 43°   Visibility: 3mi
Dew Point: 43°   Wind: 5mph
Humidity: 100%   Direction: 60°ENE
Pressure: 29.62"   Gusts: NA
Location:  56.19°N, 4.05°W
Report Text: EGPF 280020Z 06004KT 5000 MIFG BKN018 06/06 Q1003
Loading
Personal Weather Stations






























Interactive Weather Map New forecast layout! Learn more

10-Day Weather Forecast

Advertisements
Track Severe Weather on mobile